Hauptseite
METAR-TAF:

METAR-TAF

Flughäfen :

RAF Marham

Marham, England

Breite: 52-39N, Länge: 000-34E, Höhe: 23 m

Beobachtung

Neuester Wetterbericht von vor 1 Stunde und 1 Minuten, um 10:50 UTC
Wind 14 kt aus Süd
Temperatur 13°C
Luftfeuchtigkeit 77%
Luftdruck 1021 hPa
Sichtweite 10 km oder mehr
Leicht bewölkt in der Höhe von 3000 ft
Aufgelockert bewölkt in der Höhe von 8000 ft

METAR: EGYM 141050Z 19014KT 9999 FEW030 SCT080 13/09 Q1021 BLU NOSIG

Zeit: 11:51 (11:51 UTC)

Prognose

Neuester Wetterbericht von vor 10 Minuten, um 11:41 UTC
Gültige Prognose vom 14 um 12 UTC bis 14 um 21 UTC
Wind 12 kt aus Süd
Sichtweite 10 km oder mehr
Leicht bewölkt in der Höhe von 4500 ft
Wahrscheinlichkeit 30% :
Zeitweise
vom 14 um 15 UTC bis 14 um 21 UTC
Aufgelockert bewölkt in der Höhe von 1500 ft

TAF: EGYM 141141Z 1412/1421 19012KT 9999 FEW045 PROB30 TEMPO 1415/1421 SCT015

Wetterbeobachtungen und Prognosen von mehr als 4000 Flughäfen (METAR und TAF Bericht).

Die verfügbaren Stationen werden durch gelbe und rote Markierungen auf der Karte dargestellt.

Führen Sie die Maus auf sie, um den Namen der Station zu sehen.

Darauf klicken, um die Beobachtung von Wetterbeobachtungen und Prognosen zu sehen.

Um die Karte zu ändern : klicken Sie auf den grünen Tasten mit einem schwarzen Kreuz Zum Vergrößern, auf den grünen Button mit einem Gedankenstrich zu verkleinern, oder auf die grünen Pfeile für benachbarte Karten.


METAR-TAF: